Time;durP1;ratioP1;P1;durP2;ratioP2;P2;SDS_P1;SDS_P2;PMS_P1;PMS_P2;Temp;Humidity;BMP_temperature;BMP_pressure;BME280_temperature;BME280_humidity;BME280_pressure;Samples;Min_cycle;Max_cycle;Signal;HPM_P1;HPM_P2
2021/06/23 00:01:43;;;;;;;25.73;23.15;;;;;;;;;;5115027;28;20027;-73
2021/06/23 00:04:09;;;;;;;25.05;22.38;;;;;;;;;;5114923;28;20034;-73
2021/06/23 00:06:35;;;;;;;24.42;19.95;;;;;;;;;;5115180;28;20486;-72
2021/06/23 00:09:04;;;;;;;27.38;24.70;;;;;;;;;;5115284;28;20478;-72
2021/06/23 00:11:31;;;;;;;24.33;21.98;;;;;;;;;;5114466;28;20040;-72
2021/06/23 00:13:58;;;;;;;23.10;20.85;;;;;;;;;;5114463;28;20027;-72
2021/06/23 00:16:24;;;;;;;21.80;19.55;;;;;;;;;;5114714;28;20027;-73
2021/06/23 00:18:50;;;;;;;21.73;19.80;;;;;;;;;;5114520;28;20480;-72
2021/06/23 00:21:16;;;;;;;22.17;19.45;;;;;;;;;;5114646;28;20024;-72
2021/06/23 00:23:42;;;;;;;21.25;19.05;;;;;;;;;;5115009;28;20157;-72
2021/06/23 00:26:08;;;;;;;22.35;18.27;;;;;;;;;;5114691;28;20023;-72
2021/06/23 00:28:34;;;;;;;24.10;18.80;;;;;;;;;;5114543;28;20128;-75
2021/06/23 00:31:00;;;;;;;23.50;19.77;;;;;;;;;;5114189;28;20070;-75
2021/06/23 00:33:28;;;;;;;22.75;19.90;;;;;;;;;;5114483;28;20023;-73
2021/06/23 00:35:54;;;;;;;20.90;18.75;;;;;;;;;;5114581;28;20023;-75
2021/06/23 00:38:20;;;;;;;19.13;16.77;;;;;;;;;;5114197;28;20024;-75
2021/06/23 00:40:46;;;;;;;20.30;18.23;;;;;;;;;;5114399;28;20031;-74
2021/06/23 00:43:13;;;;;;;17.92;16.02;;;;;;;;;;5114314;28;20427;-75
2021/06/23 00:45:39;;;;;;;18.15;16.35;;;;;;;;;;5114213;28;20024;-74
2021/06/23 00:48:08;;;;;;;17.08;15.63;;;;;;;;;;5114599;28;20024;-75
2021/06/23 00:50:35;;;;;;;18.88;16.90;;;;;;;;;;5114384;28;20056;-74
2021/06/23 00:53:01;;;;;;;16.23;14.43;;;;;;;;;;5114094;28;20028;-75
2021/06/23 00:55:27;;;;;;;17.10;15.38;;;;;;;;;;5114447;28;20102;-74
2021/06/23 00:57:53;;;;;;;17.23;15.52;;;;;;;;;;5114133;28;20486;-75
2021/06/23 01:00:20;;;;;;;18.83;17.00;;;;;;;;;;5114372;28;20036;-74
2021/06/23 01:02:46;;;;;;;18.02;16.27;;;;;;;;;;5114311;28;20114;-74
2021/06/23 01:05:12;;;;;;;14.55;13.25;;;;;;;;;;5114008;28;20477;-75
2021/06/23 01:07:38;;;;;;;17.33;15.70;;;;;;;;;;5114302;28;20114;-75
2021/06/23 01:10:05;;;;;;;19.88;17.85;;;;;;;;;;5113876;28;20479;-75
2021/06/23 01:12:51;;;;;;;18.80;15.43;;;;;;;;;;5114045;28;20085;-74
2021/06/23 01:15:17;;;;;;;17.27;15.43;;;;;;;;;;5099149;28;20023;-75
2021/06/23 01:17:43;;;;;;;17.98;16.15;;;;;;;;;;5114525;28;20023;-75
2021/06/23 01:20:09;;;;;;;20.40;15.68;;;;;;;;;;5114101;28;20370;-74
2021/06/23 01:22:37;;;;;;;18.48;16.33;;;;;;;;;;5113740;28;20051;-75
2021/06/23 01:25:04;;;;;;;17.67;15.93;;;;;;;;;;5113852;28;20682;-75
2021/06/23 01:27:30;;;;;;;17.15;15.32;;;;;;;;;;5114672;28;20035;-74
2021/06/23 01:29:57;;;;;;;17.33;14.52;;;;;;;;;;5113894;28;20469;-74
2021/06/23 01:32:23;;;;;;;21.00;16.92;;;;;;;;;;5113932;28;20032;-74
2021/06/23 01:34:49;;;;;;;17.50;15.75;;;;;;;;;;5114082;28;20043;-74
2021/06/23 01:37:15;;;;;;;18.65;15.23;;;;;;;;;;5114120;28;20038;-74
2021/06/23 01:39:41;;;;;;;17.25;15.13;;;;;;;;;;5113461;28;20020;-75
2021/06/23 01:42:08;;;;;;;21.17;15.82;;;;;;;;;;5114242;28;20100;-74
2021/06/23 01:44:34;;;;;;;20.70;18.17;;;;;;;;;;5114319;28;20020;-74
2021/06/23 01:47:02;;;;;;;22.23;18.95;;;;;;;;;;5113926;28;20028;-74
2021/06/23 01:49:28;;;;;;;20.52;17.10;;;;;;;;;;5113979;28;20101;-74
2021/06/23 01:51:54;;;;;;;22.23;20.00;;;;;;;;;;5113822;28;20081;-74
2021/06/23 01:54:20;;;;;;;24.85;18.40;;;;;;;;;;5113684;28;20050;-74
2021/06/23 01:56:46;;;;;;;26.23;21.92;;;;;;;;;;5113961;28;20106;-74
2021/06/23 01:59:12;;;;;;;28.63;23.02;;;;;;;;;;5113722;28;20035;-74
2021/06/23 02:01:59;;;;;;;21.08;18.80;;;;;;;;;;5113811;28;20059;-74
2021/06/23 02:04:37;;;;;;;29.30;23.00;;;;;;;;;;5101991;28;20027;-74
2021/06/23 02:07:10;;;;;;;25.17;19.27;;;;;;;;;;5117203;28;20028;-75
2021/06/23 02:09:50;;;;;;;35.70;23.48;;;;;;;;;;5117477;28;20468;-75
2021/06/23 02:12:21;;;;;;;23.88;19.17;;;;;;;;;;5117480;28;20027;-75
2021/06/23 02:14:48;;;;;;;31.23;21.95;;;;;;;;;;5116970;28;20029;-75
2021/06/23 02:17:14;;;;;;;22.20;19.02;;;;;;;;;;5116146;28;20035;-75
2021/06/23 02:19:41;;;;;;;26.52;22.25;;;;;;;;;;5116870;28;20638;-75
2021/06/23 02:22:09;;;;;;;29.27;21.00;;;;;;;;;;5117065;28;20073;-75
2021/06/23 02:24:35;;;;;;;20.90;18.30;;;;;;;;;;5116811;28;20023;-75
2021/06/23 02:27:01;;;;;;;23.67;21.27;;;;;;;;;;5116778;28;20061;-75
2021/06/23 02:29:27;;;;;;;25.90;18.75;;;;;;;;;;5116603;28;20030;-75
2021/06/23 02:31:53;;;;;;;26.63;21.15;;;;;;;;;;5116427;28;20028;-75
2021/06/23 02:34:19;;;;;;;24.13;19.73;;;;;;;;;;5117181;28;20498;-75
2021/06/23 02:36:46;;;;;;;22.60;19.05;;;;;;;;;;5117337;28;20055;-75
2021/06/23 02:39:12;;;;;;;19.45;17.27;;;;;;;;;;5116637;28;20397;-75
2021/06/23 02:41:38;;;;;;;19.73;17.55;;;;;;;;;;5116629;28;20107;-74
2021/06/23 02:44:04;;;;;;;20.38;17.45;;;;;;;;;;5116597;28;20027;-74
2021/06/23 02:46:30;;;;;;;20.38;17.20;;;;;;;;;;5116437;28;20496;-75
2021/06/23 02:48:57;;;;;;;24.13;18.02;;;;;;;;;;5116447;28;20060;-75
2021/06/23 02:51:25;;;;;;;22.77;16.70;;;;;;;;;;5116917;28;20043;-75
2021/06/23 02:53:51;;;;;;;18.42;14.95;;;;;;;;;;5116834;28;20023;-75
2021/06/23 02:56:18;;;;;;;21.95;17.85;;;;;;;;;;5116721;28;20077;-75
2021/06/23 02:58:44;;;;;;;22.88;17.20;;;;;;;;;;5115887;28;20027;-75
2021/06/23 03:01:11;;;;;;;16.88;14.82;;;;;;;;;;5115902;28;20032;-75
2021/06/23 03:03:38;;;;;;;23.33;16.20;;;;;;;;;;5116615;28;20501;-76
2021/06/23 03:06:04;;;;;;;20.38;15.32;;;;;;;;;;5116715;28;20027;-75
2021/06/23 03:08:30;;;;;;;20.15;16.58;;;;;;;;;;5115930;28;20031;-76
2021/06/23 03:10:56;;;;;;;18.70;14.18;;;;;;;;;;5116039;28;20047;-76
2021/06/23 03:13:22;;;;;;;33.75;16.30;;;;;;;;;;5116096;28;20384;-75
2021/06/23 03:15:48;;;;;;;18.77;14.35;;;;;;;;;;5115967;28;20019;-75
2021/06/23 03:18:14;;;;;;;19.83;16.83;;;;;;;;;;5115443;28;20024;-75
2021/06/23 03:20:40;;;;;;;18.48;16.08;;;;;;;;;;5115843;28;20072;-75
2021/06/23 03:23:06;;;;;;;15.40;13.60;;;;;;;;;;5115863;28;20035;-75
2021/06/23 03:25:33;;;;;;;21.85;14.02;;;;;;;;;;5115813;28;20129;-75
2021/06/23 03:27:59;;;;;;;17.48;15.18;;;;;;;;;;5115758;28;20485;-75
2021/06/23 03:30:26;;;;;;;16.00;13.18;;;;;;;;;;5115224;28;20055;-74
2021/06/23 03:32:52;;;;;;;18.05;13.80;;;;;;;;;;5115512;28;20027;-75
2021/06/23 03:35:20;;;;;;;22.80;16.17;;;;;;;;;;5116105;28;20024;-76
2021/06/23 03:37:46;;;;;;;24.48;15.73;;;;;;;;;;5115646;28;20023;-75
2021/06/23 03:40:12;;;;;;;23.55;15.02;;;;;;;;;;5115253;28;20054;-75
2021/06/23 03:42:38;;;;;;;18.30;15.13;;;;;;;;;;5115220;28;20047;-75
2021/06/23 03:45:05;;;;;;;17.00;14.20;;;;;;;;;;5115399;28;20024;-75
2021/06/23 03:47:31;;;;;;;18.88;14.07;;;;;;;;;;5116059;28;20024;-75
2021/06/23 03:49:57;;;;;;;19.13;14.73;;;;;;;;;;5115090;28;20040;-75
2021/06/23 03:52:23;;;;;;;19.02;14.55;;;;;;;;;;5115297;28;20020;-74
2021/06/23 03:54:49;;;;;;;19.73;14.88;;;;;;;;;;5115174;28;20020;-75
2021/06/23 03:57:15;;;;;;;21.20;13.93;;;;;;;;;;5115231;28;20030;-75
2021/06/23 03:59:41;;;;;;;17.05;14.57;;;;;;;;;;5115143;28;20391;-75
2021/06/23 04:02:07;;;;;;;22.08;14.75;;;;;;;;;;5114746;28;20031;-74
2021/06/23 04:04:33;;;;;;;23.70;15.77;;;;;;;;;;5114903;28;20016;-75
2021/06/23 04:07:00;;;;;;;17.40;13.48;;;;;;;;;;5114942;28;20054;-75
2021/06/23 04:09:26;;;;;;;18.80;14.95;;;;;;;;;;5114970;28;20023;-75
2021/06/23 04:11:52;;;;;;;15.38;13.40;;;;;;;;;;5114890;28;20025;-75
2021/06/23 04:14:18;;;;;;;18.20;13.07;;;;;;;;;;5114880;28;20019;-75
2021/06/23 04:16:44;;;;;;;15.45;12.00;;;;;;;;;;5114698;28;20028;-75
2021/06/23 04:19:11;;;;;;;17.15;13.20;;;;;;;;;;5114742;28;20050;-75
2021/06/23 04:21:37;;;;;;;14.23;12.57;;;;;;;;;;5114474;28;20052;-75
2021/06/23 04:24:03;;;;;;;16.42;12.93;;;;;;;;;;5113630;28;20106;-74
2021/06/23 04:26:29;;;;;;;14.85;11.90;;;;;;;;;;5114147;28;20483;-74
2021/06/23 04:28:55;;;;;;;13.38;11.43;;;;;;;;;;5114634;28;20476;-74
2021/06/23 04:31:21;;;;;;;15.68;11.48;;;;;;;;;;5114269;28;20385;-76
2021/06/23 04:33:47;;;;;;;13.63;11.20;;;;;;;;;;5114534;28;20050;-76
2021/06/23 04:36:13;;;;;;;12.25;10.70;;;;;;;;;;5114947;28;20027;-76
2021/06/23 04:38:39;;;;;;;15.93;12.50;;;;;;;;;;5114374;28;20058;-75
2021/06/23 04:41:05;;;;;;;10.82;9.68;;;;;;;;;;5112550;28;20157;-76
2021/06/23 04:43:31;;;;;;;14.82;11.93;;;;;;;;;;5113810;28;20016;-77
2021/06/23 04:45:57;;;;;;;14.60;10.70;;;;;;;;;;5114743;28;20028;-75
2021/06/23 04:48:23;;;;;;;17.63;11.68;;;;;;;;;;5115293;28;20024;-75
2021/06/23 04:50:49;;;;;;;12.90;10.25;;;;;;;;;;5114280;28;20093;-76
2021/06/23 04:53:17;;;;;;;19.05;12.27;;;;;;;;;;5112492;28;20390;-76
2021/06/23 04:55:43;;;;;;;18.23;12.02;;;;;;;;;;5113576;28;20072;-75
2021/06/23 04:58:09;;;;;;;22.85;11.88;;;;;;;;;;5113751;28;20031;-75
2021/06/23 05:00:35;;;;;;;14.10;12.15;;;;;;;;;;5112688;28;20453;-76
2021/06/23 05:03:01;;;;;;;28.73;10.57;;;;;;;;;;5113832;28;20423;-76
2021/06/23 05:05:27;;;;;;;18.35;11.50;;;;;;;;;;5113228;28;20024;-75
2021/06/23 05:07:54;;;;;;;20.70;10.48;;;;;;;;;;5113343;28;20381;-74
2021/06/23 05:10:20;;;;;;;17.00;10.27;;;;;;;;;;5112974;28;20469;-74
2021/06/23 05:12:46;;;;;;;13.02;11.05;;;;;;;;;;5113372;28;20035;-74
2021/06/23 05:15:12;;;;;;;17.33;11.25;;;;;;;;;;5112519;28;20028;-74
2021/06/23 05:17:39;;;;;;;24.23;13.30;;;;;;;;;;5114006;28;20027;-74
2021/06/23 05:20:05;;;;;;;22.45;14.73;;;;;;;;;;5113043;28;20400;-74
2021/06/23 05:22:31;;;;;;;15.02;11.90;;;;;;;;;;5113840;28;20020;-74
2021/06/23 05:24:58;;;;;;;16.73;11.00;;;;;;;;;;5113148;28;20024;-76
2021/06/23 05:27:24;;;;;;;14.32;12.23;;;;;;;;;;5114089;28;20028;-75
2021/06/23 05:29:50;;;;;;;18.48;12.10;;;;;;;;;;5113653;28;20028;-73
2021/06/23 05:32:16;;;;;;;17.95;10.25;;;;;;;;;;5114371;28;20016;-77
2021/06/23 05:34:42;;;;;;;14.02;10.52;;;;;;;;;;5114394;28;20387;-78
2021/06/23 05:37:08;;;;;;;14.02;10.68;;;;;;;;;;5113241;28;20024;-74
2021/06/23 05:39:34;;;;;;;12.00;9.93;;;;;;;;;;5117285;28;20046;-72
2021/06/23 05:42:00;;;;;;;13.18;8.50;;;;;;;;;;5117841;28;20028;-72
2021/06/23 05:44:28;;;;;;;10.90;9.80;;;;;;;;;;5117704;28;20023;-71
2021/06/23 05:46:54;;;;;;;16.92;9.63;;;;;;;;;;5117745;28;20032;-72
2021/06/23 05:49:20;;;;;;;11.60;9.18;;;;;;;;;;5117017;28;20396;-72
2021/06/23 05:51:46;;;;;;;9.15;8.38;;;;;;;;;;5117667;28;20031;-72
2021/06/23 05:54:12;;;;;;;11.93;9.38;;;;;;;;;;5117149;28;20038;-73
2021/06/23 05:56:38;;;;;;;17.33;9.23;;;;;;;;;;5117462;28;20385;-72
2021/06/23 05:59:04;;;;;;;9.00;8.07;;;;;;;;;;5117219;28;20024;-72
2021/06/23 06:01:30;;;;;;;8.30;7.45;;;;;;;;;;5118066;28;20024;-71
2021/06/23 06:03:57;;;;;;;10.80;7.95;;;;;;;;;;5117692;28;20064;-73
2021/06/23 06:06:23;;;;;;;10.23;7.40;;;;;;;;;;5117480;28;20369;-73
2021/06/23 06:08:49;;;;;;;7.50;6.80;;;;;;;;;;5117334;28;20070;-73
2021/06/23 06:11:15;;;;;;;9.75;8.73;;;;;;;;;;5117091;28;20031;-73
2021/06/23 06:13:41;;;;;;;9.88;7.70;;;;;;;;;;5116474;28;20028;-72
2021/06/23 06:16:07;;;;;;;10.35;8.38;;;;;;;;;;5116982;28;20469;-72
2021/06/23 06:18:33;;;;;;;9.43;8.00;;;;;;;;;;5116845;28;20034;-73
2021/06/23 06:21:00;;;;;;;9.35;8.32;;;;;;;;;;5117033;28;20465;-73
2021/06/23 06:23:26;;;;;;;9.32;8.52;;;;;;;;;;5116823;28;20027;-73
2021/06/23 06:25:52;;;;;;;8.95;7.97;;;;;;;;;;5117004;28;20369;-74
2021/06/23 06:28:19;;;;;;;11.10;8.43;;;;;;;;;;5116709;28;20023;-73
2021/06/23 06:30:45;;;;;;;8.85;6.55;;;;;;;;;;5117394;28;20385;-73
2021/06/23 06:33:11;;;;;;;9.65;8.32;;;;;;;;;;5116796;28;20147;-73
2021/06/23 06:35:38;;;;;;;9.18;8.20;;;;;;;;;;5116662;28;20454;-73
2021/06/23 06:38:04;;;;;;;11.50;7.30;;;;;;;;;;5116983;28;20110;-73
2021/06/23 06:40:31;;;;;;;10.60;7.95;;;;;;;;;;5116604;28;20030;-73
2021/06/23 06:42:57;;;;;;;12.55;7.88;;;;;;;;;;5116329;28;20030;-74
2021/06/23 06:45:23;;;;;;;8.20;6.97;;;;;;;;;;5117139;28;20028;-74
2021/06/23 06:47:49;;;;;;;8.05;7.32;;;;;;;;;;5116662;28;20055;-73
2021/06/23 06:50:16;;;;;;;8.13;6.85;;;;;;;;;;5115958;28;20138;-73
2021/06/23 06:52:42;;;;;;;8.65;7.30;;;;;;;;;;5116334;28;20054;-73
2021/06/23 06:55:08;;;;;;;7.18;6.55;;;;;;;;;;5116038;28;20040;-70
2021/06/23 06:57:34;;;;;;;8.27;7.15;;;;;;;;;;5116023;28;20027;-71
2021/06/23 07:00:01;;;;;;;9.07;7.05;;;;;;;;;;5116524;28;20020;-74
2021/06/23 07:02:27;;;;;;;10.40;8.27;;;;;;;;;;5116612;28;20035;-74
2021/06/23 07:04:53;;;;;;;9.05;7.97;;;;;;;;;;5115981;28;20023;-74
2021/06/23 07:07:19;;;;;;;12.80;8.32;;;;;;;;;;5116879;28;20027;-73
2021/06/23 07:09:45;;;;;;;7.32;6.63;;;;;;;;;;5116417;28;20542;-75
2021/06/23 07:12:11;;;;;;;11.75;7.55;;;;;;;;;;5116467;28;20466;-76
2021/06/23 07:14:37;;;;;;;9.82;6.80;;;;;;;;;;5115943;28;20030;-76
2021/06/23 07:17:04;;;;;;;11.00;7.40;;;;;;;;;;5116193;28;20024;-75
2021/06/23 07:19:30;;;;;;;11.45;8.20;;;;;;;;;;5116064;28;20138;-74
2021/06/23 07:21:56;;;;;;;13.77;7.65;;;;;;;;;;5115989;28;20020;-73
2021/06/23 07:24:22;;;;;;;9.00;7.82;;;;;;;;;;5115869;28;20023;-74
2021/06/23 07:26:52;;;;;;;10.93;8.25;;;;;;;;;;5115947;28;20461;-73
2021/06/23 07:29:18;;;;;;;10.93;7.80;;;;;;;;;;5115692;28;20024;-76
2021/06/23 07:31:53;;;;;;;11.23;9.32;;;;;;;;;;5115473;28;20070;-76
2021/06/23 07:34:35;;;;;;;26.58;11.48;;;;;;;;;;5115855;28;20016;-77
2021/06/23 07:37:05;;;;;;;11.45;9.75;;;;;;;;;;5114347;28;20408;-76
2021/06/23 07:39:31;;;;;;;16.77;9.82;;;;;;;;;;5114323;28;20132;-76
2021/06/23 07:41:57;;;;;;;18.27;9.93;;;;;;;;;;5114857;28;20027;-76
2021/06/23 07:47:14;;;;;;;14.55;10.98;;;;;;;;;;5099334;28;20067;-71
2021/06/23 07:49:42;;;;;;;9.85;8.85;;;;;;;;;;5114824;28;20063;-71
2021/06/23 07:52:15;;;;;;;9.60;8.60;;;;;;;;;;5114540;28;20020;-72
2021/06/23 08:08:56;;;;;;;8.98;8.18;;;;;;;;;;5099514;28;20118;-75
2021/06/23 08:11:19;;;;;;;11.23;8.85;;;;;;;;;;5099915;28;20050;-73
2021/06/23 08:13:45;;;;;;;8.77;7.97;;;;;;;;;;5114566;28;20028;-73
2021/06/23 08:16:11;;;;;;;9.43;8.52;;;;;;;;;;5114879;28;20107;-73
2021/06/23 08:18:37;;;;;;;12.27;8.85;;;;;;;;;;5114489;28;20053;-72
2021/06/23 08:21:04;;;;;;;9.00;8.20;;;;;;;;;;5114548;28;20031;-74
2021/06/23 08:23:30;;;;;;;10.95;9.85;;;;;;;;;;5114135;28;20032;-76
2021/06/23 08:25:56;;;;;;;10.60;9.55;;;;;;;;;;5114871;28;20503;-74
2021/06/23 08:28:23;;;;;;;10.88;9.25;;;;;;;;;;5114773;28;20043;-73
2021/06/23 08:30:49;;;;;;;9.68;8.35;;;;;;;;;;5114227;28;20049;-73
2021/06/23 08:33:15;;;;;;;11.75;10.55;;;;;;;;;;5114396;28;20019;-73
2021/06/23 08:35:41;;;;;;;11.82;10.73;;;;;;;;;;5114236;28;20058;-73
2021/06/23 08:38:07;;;;;;;13.02;11.75;;;;;;;;;;5114357;28;20096;-73
2021/06/23 08:40:34;;;;;;;13.88;11.27;;;;;;;;;;5114353;28;20473;-75
2021/06/23 08:43:00;;;;;;;11.55;10.32;;;;;;;;;;5114467;28;20046;-75
2021/06/23 08:45:26;;;;;;;11.55;10.45;;;;;;;;;;5113574;28;20042;-73
2021/06/23 08:47:52;;;;;;;12.57;11.48;;;;;;;;;;5113930;28;20553;-74
2021/06/23 08:50:19;;;;;;;14.73;10.27;;;;;;;;;;5114514;28;20054;-73
2021/06/23 08:52:45;;;;;;;12.52;11.15;;;;;;;;;;5114012;28;20039;-73
2021/06/23 08:55:12;;;;;;;13.82;10.85;;;;;;;;;;5114382;28;20473;-73
2021/06/23 08:57:38;;;;;;;12.80;10.35;;;;;;;;;;5114347;28;20150;-73
2021/06/23 09:00:04;;;;;;;13.50;10.40;;;;;;;;;;5114492;28;20035;-73
2021/06/23 09:02:30;;;;;;;14.43;9.88;;;;;;;;;;5114079;28;20055;-73
2021/06/23 09:04:58;;;;;;;12.57;10.23;;;;;;;;;;5114074;28;20346;-73
2021/06/23 09:07:39;;;;;;;11.43;10.40;;;;;;;;;;5114550;28;20114;-73
2021/06/23 09:10:06;;;;;;;16.08;10.70;;;;;;;;;;5114416;28;20050;-73
2021/06/23 09:12:33;;;;;;;21.30;13.75;;;;;;;;;;5116061;28;20024;-73
2021/06/23 09:15:00;;;;;;;22.80;14.45;;;;;;;;;;5117881;28;20403;-73
2021/06/23 09:17:27;;;;;;;23.27;14.40;;;;;;;;;;5118287;28;20035;-74
2021/06/23 09:19:57;;;;;;;18.90;13.95;;;;;;;;;;5117993;28;20030;-75
2021/06/23 09:22:40;;;;;;;15.88;12.75;;;;;;;;;;5118203;28;20491;-74
2021/06/23 09:25:26;;;;;;;13.77;11.13;;;;;;;;;;5118312;28;20479;-74
2021/06/23 09:27:54;;;;;;;12.80;10.18;;;;;;;;;;5102896;28;20023;-74
2021/06/23 09:30:24;;;;;;;15.20;11.20;;;;;;;;;;5117382;28;20248;-73
2021/06/23 09:33:10;;;;;;;10.48;9.43;;;;;;;;;;5118480;28;20027;-74
2021/06/23 09:35:37;;;;;;;12.75;9.35;;;;;;;;;;5103186;28;20059;-74
2021/06/23 09:38:03;;;;;;;11.00;9.98;;;;;;;;;;5117619;28;20056;-73
2021/06/23 09:40:30;;;;;;;18.08;10.45;;;;;;;;;;5117536;28;20377;-73
2021/06/23 09:43:01;;;;;;;12.55;9.23;;;;;;;;;;5116856;28;20055;-73
2021/06/23 09:45:28;;;;;;;14.40;10.85;;;;;;;;;;5118705;28;20028;-74
2021/06/23 09:47:58;;;;;;;11.50;9.88;;;;;;;;;;5118093;28;20057;-73
2021/06/23 09:50:25;;;;;;;14.85;10.52;;;;;;;;;;5117570;28;20058;-74
2021/06/23 09:53:13;;;;;;;12.27;10.02;;;;;;;;;;5117715;28;20031;-74
2021/06/23 09:55:40;;;;;;;10.60;9.68;;;;;;;;;;5103440;28;20028;-74
2021/06/23 09:58:11;;;;;;;13.25;10.77;;;;;;;;;;5117755;28;20081;-74
2021/06/23 10:00:57;;;;;;;22.77;10.90;;;;;;;;;;5117586;28;20024;-73
2021/06/23 10:03:24;;;;;;;14.38;9.07;;;;;;;;;;5102401;28;20027;-74
2021/06/23 10:05:50;;;;;;;19.65;10.73;;;;;;;;;;5117118;28;20029;-73
2021/06/23 10:08:31;;;;;;;11.77;10.57;;;;;;;;;;5117782;28;20417;-73
2021/06/23 10:10:57;;;;;;;18.70;11.55;;;;;;;;;;5117678;28;20031;-74
2021/06/23 10:13:23;;;;;;;12.13;11.02;;;;;;;;;;5116856;28;20467;-74
2021/06/23 10:15:49;;;;;;;13.27;11.35;;;;;;;;;;5116936;28;20069;-73
2021/06/23 10:18:16;;;;;;;12.98;11.68;;;;;;;;;;5116962;28;20016;-73
2021/06/23 10:20:42;;;;;;;11.93;10.73;;;;;;;;;;5117100;28;20034;-73
2021/06/23 10:23:08;;;;;;;17.10;12.98;;;;;;;;;;5116541;28;20027;-73
2021/06/23 10:25:35;;;;;;;14.38;12.98;;;;;;;;;;5117127;28;20065;-73
2021/06/23 10:28:01;;;;;;;13.05;11.77;;;;;;;;;;5116926;28;20488;-74
2021/06/23 10:30:28;;;;;;;13.75;10.93;;;;;;;;;;5116660;28;20031;-74
2021/06/23 10:32:54;;;;;;;15.80;11.95;;;;;;;;;;5116634;28;20020;-73
2021/06/23 10:35:20;;;;;;;13.30;11.90;;;;;;;;;;5116725;28;20042;-73
2021/06/23 10:37:46;;;;;;;15.60;12.48;;;;;;;;;;5116922;28;20073;-74
2021/06/23 10:40:13;;;;;;;12.73;11.38;;;;;;;;;;5116631;28;20031;-74
2021/06/23 10:42:39;;;;;;;13.25;11.90;;;;;;;;;;5116574;28;20047;-74
2021/06/23 10:45:05;;;;;;;13.95;11.85;;;;;;;;;;5116557;28;20019;-74
2021/06/23 10:47:34;;;;;;;16.85;12.68;;;;;;;;;;5116203;28;20032;-74
2021/06/23 10:50:00;;;;;;;13.45;12.15;;;;;;;;;;5116433;28;20481;-73
2021/06/23 10:52:31;;;;;;;14.55;12.48;;;;;;;;;;5117103;28;20034;-73
2021/06/23 10:54:58;;;;;;;14.80;12.90;;;;;;;;;;5116745;28;20035;-73
2021/06/23 10:57:27;;;;;;;16.05;14.20;;;;;;;;;;5116591;28;20023;-73
2021/06/23 10:59:53;;;;;;;15.43;13.82;;;;;;;;;;5116145;28;20038;-74
2021/06/23 11:02:27;;;;;;;16.60;14.85;;;;;;;;;;5115820;28;20024;-73
2021/06/23 11:05:13;;;;;;;16.75;15.25;;;;;;;;;;5116599;28;20027;-73
2021/06/23 11:07:44;;;;;;;26.27;17.83;;;;;;;;;;5100915;28;20049;-72
2021/06/23 11:10:25;;;;;;;18.13;16.42;;;;;;;;;;5115984;28;20042;-70
2021/06/23 11:12:51;;;;;;;;;;;;;;;;;;5116395;28;20030;-72
2021/06/23 11:15:18;;;;;;;17.55;15.70;;;;;;;;;;5115880;28;19908;-72
2021/06/23 11:17:45;;;;;;;25.33;15.10;;;;;;;;;;5115980;28;20103;-72
2021/06/23 11:20:31;;;;;;;16.77;15.15;;;;;;;;;;5102871;28;20063;-73
2021/06/23 11:22:57;;;;;;;17.35;15.63;;;;;;;;;;5085895;28;20024;-71
2021/06/23 11:25:24;;;;;;;18.27;16.27;;;;;;;;;;5104902;28;20556;-73
2021/06/23 11:28:10;;;;;;;16.70;14.73;;;;;;;;;;5105610;28;20016;-72
2021/06/23 11:30:38;;;;;;;18.67;16.45;;;;;;;;;;5086612;28;20024;-73
2021/06/23 11:33:24;;;;;;;16.63;15.07;;;;;;;;;;5103578;28;20097;-70
2021/06/23 11:35:50;;;;;;;18.27;16.33;;;;;;;;;;5089468;28;20038;-73
2021/06/23 11:38:16;;;;;;;19.60;16.15;;;;;;;;;;5103235;28;20033;-72
2021/06/23 11:40:42;;;;;;;16.80;15.10;;;;;;;;;;5104038;28;20028;-72
2021/06/23 11:43:08;;;;;;;20.83;15.80;;;;;;;;;;5105083;28;20080;-74
2021/06/23 11:45:35;;;;;;;18.48;16.77;;;;;;;;;;5102881;28;20016;-73
2021/06/23 11:48:01;;;;;;;20.55;18.27;;;;;;;;;;5103818;28;20027;-74
2021/06/23 11:50:27;;;;;;;18.73;16.60;;;;;;;;;;5100181;28;20079;-73
2021/06/23 11:52:53;;;;;;;20.20;18.27;;;;;;;;;;5103243;28;20026;-73
2021/06/23 11:55:26;;;;;;;21.17;17.55;;;;;;;;;;5104499;28;20650;-73
2021/06/23 11:57:54;;;;;;;20.00;17.83;;;;;;;;;;5103380;28;20028;-75
2021/06/23 12:00:21;;;;;;;21.85;19.70;;;;;;;;;;5102266;28;20024;-74
2021/06/23 12:02:47;;;;;;;21.38;18.92;;;;;;;;;;5103700;28;20016;-73
2021/06/23 12:05:13;;;;;;;23.90;19.45;;;;;;;;;;5104132;28;20044;-73
2021/06/23 12:07:39;;;;;;;24.00;17.95;;;;;;;;;;5094430;28;20462;-78
2021/06/23 12:10:06;;;;;;;19.38;17.58;;;;;;;;;;5099194;28;20039;-76
2021/06/23 12:12:32;;;;;;;21.63;18.95;;;;;;;;;;5113638;28;20427;-77
2021/06/23 12:14:58;;;;;;;21.00;18.90;;;;;;;;;;5115059;28;20028;-79
2021/06/23 12:17:24;;;;;;;22.17;19.17;;;;;;;;;;5113558;28;20034;-79
2021/06/23 12:19:52;;;;;;;20.58;18.50;;;;;;;;;;5102829;28;20032;-77
2021/06/23 12:22:19;;;;;;;20.60;18.60;;;;;;;;;;5094672;28;20016;-77
2021/06/23 12:24:45;;;;;;;21.95;19.85;;;;;;;;;;5094191;28;20114;-74
2021/06/23 12:27:11;;;;;;;23.65;20.65;;;;;;;;;;5093874;28;20035;-76
2021/06/23 12:29:38;;;;;;;20.95;18.95;;;;;;;;;;5101791;28;20065;-76
2021/06/23 12:32:05;;;;;;;23.65;21.25;;;;;;;;;;5093155;28;20031;-77
2021/06/23 12:34:31;;;;;;;21.15;18.98;;;;;;;;;;5094546;28;20030;-79
2021/06/23 12:36:57;;;;;;;22.13;20.00;;;;;;;;;;5092910;28;20060;-76
2021/06/23 12:39:24;;;;;;;24.73;20.83;;;;;;;;;;5094973;28;20019;-77
2021/06/23 12:41:50;;;;;;;21.77;19.58;;;;;;;;;;5113967;28;20217;-76
2021/06/23 12:44:16;;;;;;;20.02;17.83;;;;;;;;;;5114468;28;20063;-76
2021/06/23 12:46:42;;;;;;;20.42;18.33;;;;;;;;;;5113481;28;20031;-77
2021/06/23 12:49:08;;;;;;;22.27;19.98;;;;;;;;;;5110155;28;20143;-76
2021/06/23 12:51:34;;;;;;;24.08;21.63;;;;;;;;;;5093887;28;20428;-80
2021/06/23 12:54:00;;;;;;;23.90;21.60;;;;;;;;;;5094148;28;20028;-77
2021/06/23 12:56:26;;;;;;;21.60;19.52;;;;;;;;;;5094466;28;20031;-81
2021/06/23 12:58:52;;;;;;;22.27;20.02;;;;;;;;;;5093127;28;20032;-77
2021/06/23 13:01:18;;;;;;;23.58;20.00;;;;;;;;;;5094108;28;20058;-78
2021/06/23 13:03:44;;;;;;;23.20;20.90;;;;;;;;;;5093948;28;20439;-80
2021/06/23 13:06:11;;;;;;;22.88;20.35;;;;;;;;;;5094615;28;20024;-76
2021/06/23 13:08:37;;;;;;;24.13;21.58;;;;;;;;;;5101871;28;20460;-79
2021/06/23 13:11:03;;;;;;;22.27;19.98;;;;;;;;;;5109665;28;20032;-77
2021/06/23 13:13:29;;;;;;;23.00;20.48;;;;;;;;;;5114916;28;20030;-76
2021/06/23 13:15:58;;;;;;;25.77;20.75;;;;;;;;;;5114488;28;20475;-75
2021/06/23 13:18:24;;;;;;;21.02;19.00;;;;;;;;;;5113847;28;20030;-75
2021/06/23 13:20:50;;;;;;;23.05;19.70;;;;;;;;;;5109626;28;20047;-79
2021/06/23 13:23:16;;;;;;;22.52;20.23;;;;;;;;;;5113705;28;20035;-79
2021/06/23 13:25:43;;;;;;;23.08;19.55;;;;;;;;;;5113785;28;20020;-74
2021/06/23 13:28:09;;;;;;;25.77;20.80;;;;;;;;;;5112218;28;20460;-77
2021/06/23 13:30:35;;;;;;;24.42;20.63;;;;;;;;;;5113611;28;20034;-77
2021/06/23 13:33:01;;;;;;;23.83;21.38;;;;;;;;;;5113453;28;20020;-76
2021/06/23 13:35:27;;;;;;;26.15;18.95;;;;;;;;;;5113624;28;20031;-78
2021/06/23 13:37:55;;;;;;;21.00;17.88;;;;;;;;;;5113571;28;20357;-77
2021/06/23 13:40:21;;;;;;;21.88;19.65;;;;;;;;;;5113757;28;20039;-77
2021/06/23 13:42:47;;;;;;;29.27;19.52;;;;;;;;;;5113922;28;20453;-78
2021/06/23 13:45:13;;;;;;;27.42;21.45;;;;;;;;;;5113098;28;20123;-76
2021/06/23 13:47:39;;;;;;;27.65;21.63;;;;;;;;;;5114425;28;20020;-77
2021/06/23 13:50:06;;;;;;;29.08;22.05;;;;;;;;;;5114167;28;20140;-76
2021/06/23 13:52:33;;;;;;;36.58;23.73;;;;;;;;;;5114027;28;20075;-77
2021/06/23 13:54:59;;;;;;;28.63;23.67;;;;;;;;;;5113799;28;20020;-75
2021/06/23 13:57:29;;;;;;;23.80;20.73;;;;;;;;;;5113771;28;20020;-75
2021/06/23 13:59:55;;;;;;;32.58;29.17;;;;;;;;;;5116064;28;20020;-74
2021/06/23 14:02:21;;;;;;;30.65;26.95;;;;;;;;;;5117471;28;20034;-75
2021/06/23 14:04:47;;;;;;;30.13;27.17;;;;;;;;;;5117643;28;20024;-75
2021/06/23 14:07:13;;;;;;;30.00;26.77;;;;;;;;;;5116921;28;20050;-75
2021/06/23 14:09:39;;;;;;;30.52;27.33;;;;;;;;;;5117519;28;20020;-74
2021/06/23 14:12:06;;;;;;;31.52;28.23;;;;;;;;;;5117482;28;20103;-73
2021/06/23 14:14:32;;;;;;;42.88;32.67;;;;;;;;;;5117703;28;20051;-74
2021/06/23 14:16:58;;;;;;;35.80;29.75;;;;;;;;;;5117292;28;20473;-75
2021/06/23 14:19:24;;;;;;;36.53;31.20;;;;;;;;;;5117986;28;20031;-75
2021/06/23 14:21:52;;;;;;;35.47;28.55;;;;;;;;;;5117671;28;20027;-73
2021/06/23 14:24:18;;;;;;;37.38;33.30;;;;;;;;;;5116753;28;20117;-74
2021/06/23 14:26:44;;;;;;;33.33;29.55;;;;;;;;;;5118197;28;20127;-72
2021/06/23 14:29:10;;;;;;;31.80;28.50;;;;;;;;;;5116263;28;20031;-73
2021/06/23 14:31:36;;;;;;;37.10;29.92;;;;;;;;;;5116066;28;20035;-75
2021/06/23 14:34:02;;;;;;;42.95;34.20;;;;;;;;;;5116520;28;20059;-73
2021/06/23 14:36:28;;;;;;;41.20;32.58;;;;;;;;;;5116837;28;20492;-73
2021/06/23 14:38:55;;;;;;;39.85;31.35;;;;;;;;;;5115921;28;20028;-72